sensor_id;sensor_type;location;lat;lon;timestamp;P1;durP1;ratioP1;P2;durP2;ratioP2
52708;SDS011;38606;52.986;6.980;2023-04-28T00:01:09;10.85;;;7.55;;
52708;SDS011;38606;52.986;6.980;2023-04-28T00:03:36;14.50;;;7.57;;
52708;SDS011;38606;52.986;6.980;2023-04-28T00:06:02;11.18;;;7.05;;
52708;SDS011;38606;52.986;6.980;2023-04-28T00:08:28;13.15;;;6.95;;
52708;SDS011;38606;52.986;6.980;2023-04-28T00:10:54;9.05;;;7.05;;
52708;SDS011;38606;52.986;6.980;2023-04-28T00:13:19;11.07;;;7.22;;
52708;SDS011;38606;52.986;6.980;2023-04-28T00:15:45;10.48;;;6.97;;
52708;SDS011;38606;52.986;6.980;2023-04-28T00:18:11;10.05;;;6.50;;
52708;SDS011;38606;52.986;6.980;2023-04-28T00:20:37;13.25;;;7.10;;
52708;SDS011;38606;52.986;6.980;2023-04-28T00:23:02;10.00;;;6.78;;
52708;SDS011;38606;52.986;6.980;2023-04-28T00:25:28;7.68;;;6.18;;
52708;SDS011;38606;52.986;6.980;2023-04-28T00:27:54;11.45;;;7.22;;
52708;SDS011;38606;52.986;6.980;2023-04-28T00:30:20;9.65;;;7.25;;
52708;SDS011;38606;52.986;6.980;2023-04-28T00:32:46;13.40;;;6.95;;
52708;SDS011;38606;52.986;6.980;2023-04-28T00:35:12;9.50;;;7.13;;
52708;SDS011;38606;52.986;6.980;2023-04-28T00:37:38;12.80;;;7.22;;
52708;SDS011;38606;52.986;6.980;2023-04-28T00:40:04;12.20;;;7.40;;
52708;SDS011;38606;52.986;6.980;2023-04-28T00:42:30;12.32;;;7.55;;
52708;SDS011;38606;52.986;6.980;2023-04-28T00:44:56;13.70;;;7.32;;
52708;SDS011;38606;52.986;6.980;2023-04-28T00:47:22;10.98;;;7.70;;
52708;SDS011;38606;52.986;6.980;2023-04-28T00:49:47;13.85;;;7.80;;
52708;SDS011;38606;52.986;6.980;2023-04-28T00:52:14;12.55;;;7.60;;
52708;SDS011;38606;52.986;6.980;2023-04-28T00:54:39;12.05;;;8.65;;
52708;SDS011;38606;52.986;6.980;2023-04-28T00:57:07;12.98;;;8.50;;
52708;SDS011;38606;52.986;6.980;2023-04-28T00:59:34;15.45;;;8.85;;
52708;SDS011;38606;52.986;6.980;2023-04-28T01:02:00;15.45;;;9.32;;
52708;SDS011;38606;52.986;6.980;2023-04-28T01:04:28;16.48;;;9.23;;
52708;SDS011;38606;52.986;6.980;2023-04-28T01:06:54;18.73;;;9.82;;
52708;SDS011;38606;52.986;6.980;2023-04-28T01:09:20;15.27;;;9.13;;
52708;SDS011;38606;52.986;6.980;2023-04-28T01:11:46;17.02;;;8.98;;
52708;SDS011;38606;52.986;6.980;2023-04-28T01:14:11;17.33;;;9.73;;
52708;SDS011;38606;52.986;6.980;2023-04-28T01:16:37;14.05;;;9.05;;
52708;SDS011;38606;52.986;6.980;2023-04-28T01:19:05;12.88;;;9.25;;
52708;SDS011;38606;52.986;6.980;2023-04-28T01:21:32;15.75;;;9.70;;
52708;SDS011;38606;52.986;6.980;2023-04-28T01:23:59;15.63;;;10.45;;
52708;SDS011;38606;52.986;6.980;2023-04-28T01:26:25;17.20;;;10.63;;
52708;SDS011;38606;52.986;6.980;2023-04-28T01:28:51;16.00;;;9.98;;
52708;SDS011;38606;52.986;6.980;2023-04-28T01:31:17;16.83;;;10.38;;
52708;SDS011;38606;52.986;6.980;2023-04-28T01:33:43;16.08;;;10.63;;
52708;SDS011;38606;52.986;6.980;2023-04-28T01:36:09;19.17;;;10.52;;
52708;SDS011;38606;52.986;6.980;2023-04-28T01:38:34;15.10;;;9.68;;
52708;SDS011;38606;52.986;6.980;2023-04-28T01:41:00;22.10;;;10.75;;
52708;SDS011;38606;52.986;6.980;2023-04-28T01:43:26;15.07;;;10.25;;
52708;SDS011;38606;52.986;6.980;2023-04-28T01:45:53;19.98;;;12.05;;
52708;SDS011;38606;52.986;6.980;2023-04-28T01:48:19;16.85;;;10.40;;
52708;SDS011;38606;52.986;6.980;2023-04-28T01:50:44;17.83;;;10.68;;
52708;SDS011;38606;52.986;6.980;2023-04-28T01:53:10;20.38;;;11.25;;
52708;SDS011;38606;52.986;6.980;2023-04-28T01:55:36;17.08;;;10.93;;
52708;SDS011;38606;52.986;6.980;2023-04-28T01:58:02;18.33;;;11.07;;
52708;SDS011;38606;52.986;6.980;2023-04-28T02:00:29;16.40;;;10.73;;
52708;SDS011;38606;52.986;6.980;2023-04-28T02:02:55;18.95;;;11.65;;
52708;SDS011;38606;52.986;6.980;2023-04-28T02:05:20;18.85;;;11.93;;
52708;SDS011;38606;52.986;6.980;2023-04-28T02:07:46;19.27;;;11.63;;
52708;SDS011;38606;52.986;6.980;2023-04-28T02:10:12;17.63;;;11.68;;
52708;SDS011;38606;52.986;6.980;2023-04-28T02:12:38;18.88;;;11.95;;
52708;SDS011;38606;52.986;6.980;2023-04-28T02:15:05;20.33;;;12.18;;
52708;SDS011;38606;52.986;6.980;2023-04-28T02:17:32;23.20;;;12.32;;
52708;SDS011;38606;52.986;6.980;2023-04-28T02:19:57;20.25;;;12.50;;
52708;SDS011;38606;52.986;6.980;2023-04-28T02:22:23;23.20;;;12.65;;
52708;SDS011;38606;52.986;6.980;2023-04-28T02:24:49;22.70;;;13.70;;
52708;SDS011;38606;52.986;6.980;2023-04-28T02:27:16;22.58;;;13.88;;
52708;SDS011;38606;52.986;6.980;2023-04-28T02:29:42;23.67;;;13.20;;
52708;SDS011;38606;52.986;6.980;2023-04-28T02:32:08;22.27;;;13.57;;
52708;SDS011;38606;52.986;6.980;2023-04-28T02:34:33;23.45;;;13.35;;
52708;SDS011;38606;52.986;6.980;2023-04-28T02:36:59;23.80;;;13.48;;
52708;SDS011;38606;52.986;6.980;2023-04-28T02:39:25;25.83;;;14.20;;
52708;SDS011;38606;52.986;6.980;2023-04-28T02:41:52;22.75;;;13.82;;
52708;SDS011;38606;52.986;6.980;2023-04-28T02:44:18;23.05;;;14.38;;
52708;SDS011;38606;52.986;6.980;2023-04-28T02:46:45;26.55;;;14.57;;
52708;SDS011;38606;52.986;6.980;2023-04-28T02:49:11;23.50;;;14.68;;
52708;SDS011;38606;52.986;6.980;2023-04-28T02:51:37;23.52;;;14.30;;
52708;SDS011;38606;52.986;6.980;2023-04-28T02:54:03;23.52;;;13.75;;
52708;SDS011;38606;52.986;6.980;2023-04-28T02:56:29;26.02;;;14.52;;
52708;SDS011;38606;52.986;6.980;2023-04-28T02:58:55;24.30;;;14.15;;
52708;SDS011;38606;52.986;6.980;2023-04-28T03:01:21;22.85;;;14.55;;
52708;SDS011;38606;52.986;6.980;2023-04-28T03:03:47;23.83;;;14.20;;
52708;SDS011;38606;52.986;6.980;2023-04-28T03:06:13;23.85;;;14.57;;
52708;SDS011;38606;52.986;6.980;2023-04-28T03:08:39;25.67;;;15.10;;
52708;SDS011;38606;52.986;6.980;2023-04-28T03:11:04;24.55;;;14.43;;
52708;SDS011;38606;52.986;6.980;2023-04-28T03:13:30;24.42;;;14.85;;
52708;SDS011;38606;52.986;6.980;2023-04-28T03:15:56;24.13;;;14.45;;
52708;SDS011;38606;52.986;6.980;2023-04-28T03:18:22;26.85;;;14.80;;
52708;SDS011;38606;52.986;6.980;2023-04-28T03:20:48;23.45;;;14.57;;
52708;SDS011;38606;52.986;6.980;2023-04-28T03:23:14;24.10;;;14.68;;
52708;SDS011;38606;52.986;6.980;2023-04-28T03:25:40;26.52;;;14.85;;
52708;SDS011;38606;52.986;6.980;2023-04-28T03:28:06;24.38;;;14.75;;
52708;SDS011;38606;52.986;6.980;2023-04-28T03:30:32;26.25;;;15.70;;
52708;SDS011;38606;52.986;6.980;2023-04-28T03:32:57;24.45;;;14.50;;
52708;SDS011;38606;52.986;6.980;2023-04-28T03:35:23;27.15;;;14.00;;
52708;SDS011;38606;52.986;6.980;2023-04-28T03:37:49;25.95;;;14.77;;
52708;SDS011;38606;52.986;6.980;2023-04-28T03:40:15;24.48;;;14.13;;
52708;SDS011;38606;52.986;6.980;2023-04-28T03:42:40;22.55;;;13.88;;
52708;SDS011;38606;52.986;6.980;2023-04-28T03:45:07;23.67;;;14.07;;
52708;SDS011;38606;52.986;6.980;2023-04-28T03:47:33;26.65;;;13.90;;
52708;SDS011;38606;52.986;6.980;2023-04-28T03:49:59;27.40;;;14.60;;
52708;SDS011;38606;52.986;6.980;2023-04-28T03:52:24;26.88;;;14.55;;
52708;SDS011;38606;52.986;6.980;2023-04-28T03:54:51;23.42;;;14.80;;
52708;SDS011;38606;52.986;6.980;2023-04-28T03:57:17;24.63;;;14.30;;
52708;SDS011;38606;52.986;6.980;2023-04-28T03:59:43;26.35;;;14.77;;
52708;SDS011;38606;52.986;6.980;2023-04-28T04:02:08;23.15;;;14.45;;
52708;SDS011;38606;52.986;6.980;2023-04-28T04:04:34;24.55;;;13.75;;
52708;SDS011;38606;52.986;6.980;2023-04-28T04:07:00;27.88;;;14.95;;
52708;SDS011;38606;52.986;6.980;2023-04-28T04:09:26;23.55;;;14.30;;
52708;SDS011;38606;52.986;6.980;2023-04-28T04:11:52;23.75;;;13.63;;
52708;SDS011;38606;52.986;6.980;2023-04-28T04:14:18;23.92;;;14.57;;
52708;SDS011;38606;52.986;6.980;2023-04-28T04:16:45;26.23;;;14.23;;
52708;SDS011;38606;52.986;6.980;2023-04-28T04:19:11;23.88;;;14.35;;
52708;SDS011;38606;52.986;6.980;2023-04-28T04:21:37;24.60;;;14.63;;
52708;SDS011;38606;52.986;6.980;2023-04-28T04:24:03;25.33;;;14.38;;
52708;SDS011;38606;52.986;6.980;2023-04-28T04:26:29;25.10;;;14.57;;
52708;SDS011;38606;52.986;6.980;2023-04-28T04:28:55;29.73;;;15.05;;
52708;SDS011;38606;52.986;6.980;2023-04-28T04:31:21;23.80;;;14.82;;
52708;SDS011;38606;52.986;6.980;2023-04-28T04:33:48;27.65;;;14.77;;
52708;SDS011;38606;52.986;6.980;2023-04-28T04:36:13;24.63;;;14.07;;
52708;SDS011;38606;52.986;6.980;2023-04-28T04:38:39;27.02;;;14.98;;
52708;SDS011;38606;52.986;6.980;2023-04-28T04:41:05;27.85;;;14.75;;
52708;SDS011;38606;52.986;6.980;2023-04-28T04:43:31;29.05;;;16.02;;
52708;SDS011;38606;52.986;6.980;2023-04-28T04:45:57;26.75;;;14.77;;
52708;SDS011;38606;52.986;6.980;2023-04-28T04:48:22;23.17;;;12.68;;
52708;SDS011;38606;52.986;6.980;2023-04-28T04:50:48;24.45;;;13.88;;
52708;SDS011;38606;52.986;6.980;2023-04-28T04:53:14;22.30;;;14.10;;
52708;SDS011;38606;52.986;6.980;2023-04-28T04:55:40;23.00;;;14.02;;
52708;SDS011;38606;52.986;6.980;2023-04-28T04:58:05;24.60;;;14.77;;
52708;SDS011;38606;52.986;6.980;2023-04-28T05:00:31;24.02;;;15.02;;
52708;SDS011;38606;52.986;6.980;2023-04-28T05:02:57;26.40;;;14.52;;
52708;SDS011;38606;52.986;6.980;2023-04-28T05:05:23;24.98;;;14.98;;
52708;SDS011;38606;52.986;6.980;2023-04-28T05:07:49;23.92;;;14.68;;
52708;SDS011;38606;52.986;6.980;2023-04-28T05:10:15;21.52;;;14.05;;
52708;SDS011;38606;52.986;6.980;2023-04-28T05:12:41;22.23;;;14.13;;
52708;SDS011;38606;52.986;6.980;2023-04-28T05:15:08;31.80;;;14.95;;
52708;SDS011;38606;52.986;6.980;2023-04-28T05:17:35;20.77;;;14.05;;
52708;SDS011;38606;52.986;6.980;2023-04-28T05:20:01;23.70;;;13.77;;
52708;SDS011;38606;52.986;6.980;2023-04-28T05:22:27;23.02;;;14.18;;
52708;SDS011;38606;52.986;6.980;2023-04-28T05:24:55;23.80;;;14.63;;
52708;SDS011;38606;52.986;6.980;2023-04-28T05:27:20;25.25;;;15.32;;
52708;SDS011;38606;52.986;6.980;2023-04-28T05:29:46;24.23;;;14.05;;
52708;SDS011;38606;52.986;6.980;2023-04-28T05:32:12;21.15;;;13.45;;
52708;SDS011;38606;52.986;6.980;2023-04-28T05:34:38;21.60;;;14.10;;
52708;SDS011;38606;52.986;6.980;2023-04-28T05:37:04;22.70;;;14.10;;
52708;SDS011;38606;52.986;6.980;2023-04-28T05:39:29;23.23;;;14.13;;
52708;SDS011;38606;52.986;6.980;2023-04-28T05:41:55;25.05;;;14.52;;
52708;SDS011;38606;52.986;6.980;2023-04-28T05:44:22;23.67;;;13.77;;
52708;SDS011;38606;52.986;6.980;2023-04-28T05:46:48;24.00;;;14.13;;
52708;SDS011;38606;52.986;6.980;2023-04-28T05:49:14;26.63;;;14.75;;
52708;SDS011;38606;52.986;6.980;2023-04-28T05:51:40;25.27;;;14.88;;
52708;SDS011;38606;52.986;6.980;2023-04-28T05:54:06;20.63;;;13.15;;
52708;SDS011;38606;52.986;6.980;2023-04-28T05:56:32;24.30;;;13.52;;
52708;SDS011;38606;52.986;6.980;2023-04-28T05:58:58;22.40;;;13.23;;
52708;SDS011;38606;52.986;6.980;2023-04-28T06:01:28;22.60;;;13.65;;
52708;SDS011;38606;52.986;6.980;2023-04-28T06:03:57;23.02;;;13.10;;
52708;SDS011;38606;52.986;6.980;2023-04-28T06:06:23;23.58;;;13.18;;
52708;SDS011;38606;52.986;6.980;2023-04-28T06:08:49;20.80;;;13.35;;
52708;SDS011;38606;52.986;6.980;2023-04-28T06:11:15;21.40;;;12.35;;
52708;SDS011;38606;52.986;6.980;2023-04-28T06:13:43;21.80;;;12.65;;
52708;SDS011;38606;52.986;6.980;2023-04-28T06:16:09;25.02;;;14.10;;
52708;SDS011;38606;52.986;6.980;2023-04-28T06:18:35;22.83;;;12.63;;
52708;SDS011;38606;52.986;6.980;2023-04-28T06:21:00;21.77;;;12.13;;
52708;SDS011;38606;52.986;6.980;2023-04-28T06:23:26;22.20;;;13.25;;
52708;SDS011;38606;52.986;6.980;2023-04-28T06:25:52;19.35;;;12.07;;
52708;SDS011;38606;52.986;6.980;2023-04-28T06:28:18;20.13;;;12.32;;
52708;SDS011;38606;52.986;6.980;2023-04-28T06:30:43;21.15;;;12.05;;
52708;SDS011;38606;52.986;6.980;2023-04-28T06:33:10;18.73;;;11.65;;
52708;SDS011;38606;52.986;6.980;2023-04-28T06:35:35;21.45;;;11.50;;
52708;SDS011;38606;52.986;6.980;2023-04-28T06:38:03;20.23;;;12.07;;
52708;SDS011;38606;52.986;6.980;2023-04-28T06:40:29;14.82;;;10.73;;
52708;SDS011;38606;52.986;6.980;2023-04-28T06:42:55;19.90;;;11.88;;
52708;SDS011;38606;52.986;6.980;2023-04-28T06:45:20;20.67;;;11.50;;
52708;SDS011;38606;52.986;6.980;2023-04-28T06:47:46;18.00;;;11.00;;
52708;SDS011;38606;52.986;6.980;2023-04-28T06:50:12;16.02;;;10.70;;
52708;SDS011;38606;52.986;6.980;2023-04-28T06:52:38;15.98;;;10.15;;
52708;SDS011;38606;52.986;6.980;2023-04-28T06:55:04;17.05;;;10.75;;
52708;SDS011;38606;52.986;6.980;2023-04-28T06:57:34;16.65;;;10.88;;
52708;SDS011;38606;52.986;6.980;2023-04-28T07:00:00;18.27;;;10.60;;
52708;SDS011;38606;52.986;6.980;2023-04-28T07:02:26;15.15;;;10.05;;
52708;SDS011;38606;52.986;6.980;2023-04-28T07:04:52;15.75;;;10.00;;
52708;SDS011;38606;52.986;6.980;2023-04-28T07:07:18;12.90;;;9.63;;
52708;SDS011;38606;52.986;6.980;2023-04-28T07:09:43;16.98;;;9.70;;
52708;SDS011;38606;52.986;6.980;2023-04-28T07:12:09;17.05;;;9.82;;
52708;SDS011;38606;52.986;6.980;2023-04-28T07:14:35;15.57;;;9.98;;
52708;SDS011;38606;52.986;6.980;2023-04-28T07:17:01;17.40;;;9.90;;
52708;SDS011;38606;52.986;6.980;2023-04-28T07:19:27;15.20;;;9.60;;
52708;SDS011;38606;52.986;6.980;2023-04-28T07:21:53;17.17;;;9.35;;
52708;SDS011;38606;52.986;6.980;2023-04-28T07:24:19;17.58;;;9.90;;
52708;SDS011;38606;52.986;6.980;2023-04-28T07:26:45;15.65;;;10.18;;
52708;SDS011;38606;52.986;6.980;2023-04-28T07:29:10;16.05;;;10.07;;
52708;SDS011;38606;52.986;6.980;2023-04-28T07:31:39;18.05;;;11.05;;
52708;SDS011;38606;52.986;6.980;2023-04-28T07:34:04;15.82;;;10.52;;
52708;SDS011;38606;52.986;6.980;2023-04-28T07:36:30;17.83;;;10.02;;
52708;SDS011;38606;52.986;6.980;2023-04-28T07:38:57;14.60;;;10.05;;
52708;SDS011;38606;52.986;6.980;2023-04-28T07:41:25;18.38;;;10.43;;
52708;SDS011;38606;52.986;6.980;2023-04-28T07:43:52;13.80;;;9.40;;
52708;SDS011;38606;52.986;6.980;2023-04-28T07:46:17;14.45;;;9.55;;
52708;SDS011;38606;52.986;6.980;2023-04-28T07:48:43;19.55;;;10.15;;
52708;SDS011;38606;52.986;6.980;2023-04-28T07:51:09;17.00;;;9.90;;
52708;SDS011;38606;52.986;6.980;2023-04-28T07:53:35;15.35;;;10.27;;
52708;SDS011;38606;52.986;6.980;2023-04-28T07:56:01;16.80;;;9.98;;
52708;SDS011;38606;52.986;6.980;2023-04-28T07:58:26;19.83;;;11.50;;
52708;SDS011;38606;52.986;6.980;2023-04-28T08:00:52;16.65;;;10.88;;
52708;SDS011;38606;52.986;6.980;2023-04-28T08:03:18;16.48;;;9.73;;
52708;SDS011;38606;52.986;6.980;2023-04-28T08:05:44;16.25;;;9.65;;
52708;SDS011;38606;52.986;6.980;2023-04-28T08:08:10;16.15;;;9.30;;
52708;SDS011;38606;52.986;6.980;2023-04-28T08:10:35;17.10;;;9.23;;
52708;SDS011;38606;52.986;6.980;2023-04-28T08:13:04;14.75;;;8.75;;
52708;SDS011;38606;52.986;6.980;2023-04-28T08:15:30;14.38;;;8.95;;
52708;SDS011;38606;52.986;6.980;2023-04-28T08:17:56;15.02;;;9.07;;
52708;SDS011;38606;52.986;6.980;2023-04-28T08:20:22;13.25;;;8.60;;
52708;SDS011;38606;52.986;6.980;2023-04-28T08:22:48;14.25;;;8.50;;
52708;SDS011;38606;52.986;6.980;2023-04-28T08:25:13;15.35;;;8.70;;
52708;SDS011;38606;52.986;6.980;2023-04-28T08:27:40;11.18;;;8.38;;
52708;SDS011;38606;52.986;6.980;2023-04-28T08:30:06;16.75;;;8.20;;
52708;SDS011;38606;52.986;6.980;2023-04-28T08:32:33;16.00;;;8.75;;
52708;SDS011;38606;52.986;6.980;2023-04-28T08:34:59;12.75;;;8.43;;
52708;SDS011;38606;52.986;6.980;2023-04-28T08:37:25;12.75;;;8.20;;
52708;SDS011;38606;52.986;6.980;2023-04-28T08:39:51;12.73;;;9.20;;
52708;SDS011;38606;52.986;6.980;2023-04-28T08:42:28;11.60;;;7.82;;
52708;SDS011;38606;52.986;6.980;2023-04-28T08:44:55;13.93;;;8.27;;
52708;SDS011;38606;52.986;6.980;2023-04-28T08:47:24;15.20;;;8.70;;
52708;SDS011;38606;52.986;6.980;2023-04-28T08:49:59;14.88;;;8.43;;
52708;SDS011;38606;52.986;6.980;2023-04-28T08:52:28;12.13;;;8.80;;
52708;SDS011;38606;52.986;6.980;2023-04-28T08:54:55;11.15;;;7.80;;
52708;SDS011;38606;52.986;6.980;2023-04-28T08:57:22;13.93;;;8.48;;
52708;SDS011;38606;52.986;6.980;2023-04-28T08:59:51;14.05;;;8.57;;
52708;SDS011;38606;52.986;6.980;2023-04-28T09:02:17;11.75;;;7.80;;
52708;SDS011;38606;52.986;6.980;2023-04-28T09:04:44;12.57;;;7.88;;
52708;SDS011;38606;52.986;6.980;2023-04-28T09:07:11;11.77;;;7.97;;
52708;SDS011;38606;52.986;6.980;2023-04-28T09:09:38;15.25;;;7.78;;
52708;SDS011;38606;52.986;6.980;2023-04-28T09:12:05;13.63;;;8.73;;
52708;SDS011;38606;52.986;6.980;2023-04-28T09:14:32;16.50;;;8.07;;
52708;SDS011;38606;52.986;6.980;2023-04-28T09:16:59;14.20;;;8.35;;
52708;SDS011;38606;52.986;6.980;2023-04-28T09:19:36;14.57;;;8.10;;
52708;SDS011;38606;52.986;6.980;2023-04-28T09:22:02;13.52;;;8.30;;
52708;SDS011;38606;52.986;6.980;2023-04-28T09:24:39;13.60;;;8.27;;
52708;SDS011;38606;52.986;6.980;2023-04-28T09:27:07;11.50;;;8.35;;
52708;SDS011;38606;52.986;6.980;2023-04-28T09:29:38;12.05;;;7.90;;
52708;SDS011;38606;52.986;6.980;2023-04-28T09:32:17;10.65;;;7.70;;
52708;SDS011;38606;52.986;6.980;2023-04-28T09:37:14;13.88;;;8.73;;
52708;SDS011;38606;52.986;6.980;2023-04-28T09:39:44;13.27;;;8.32;;
52708;SDS011;38606;52.986;6.980;2023-04-28T09:44:59;12.98;;;8.65;;
52708;SDS011;38606;52.986;6.980;2023-04-28T09:47:27;17.70;;;8.70;;
52708;SDS011;38606;52.986;6.980;2023-04-28T09:49:57;14.25;;;8.88;;
52708;SDS011;38606;52.986;6.980;2023-04-28T09:52:24;12.23;;;8.23;;
52708;SDS011;38606;52.986;6.980;2023-04-28T09:54:51;10.98;;;7.80;;
52708;SDS011;38606;52.986;6.980;2023-04-28T09:57:18;13.25;;;7.72;;
52708;SDS011;38606;52.986;6.980;2023-04-28T09:59:48;12.93;;;7.85;;
52708;SDS011;38606;52.986;6.980;2023-04-28T10:02:16;12.13;;;8.13;;
52708;SDS011;38606;52.986;6.980;2023-04-28T10:04:43;11.02;;;8.02;;
52708;SDS011;38606;52.986;6.980;2023-04-28T10:07:11;13.02;;;7.88;;
52708;SDS011;38606;52.986;6.980;2023-04-28T10:09:38;12.00;;;8.50;;
52708;SDS011;38606;52.986;6.980;2023-04-28T10:12:09;14.23;;;8.77;;
52708;SDS011;38606;52.986;6.980;2023-04-28T10:14:36;14.45;;;8.50;;
52708;SDS011;38606;52.986;6.980;2023-04-28T10:17:02;9.45;;;7.68;;
52708;SDS011;38606;52.986;6.980;2023-04-28T10:19:30;13.82;;;8.10;;
52708;SDS011;38606;52.986;6.980;2023-04-28T10:24:51;13.77;;;8.23;;
52708;SDS011;38606;52.986;6.980;2023-04-28T10:27:43;13.30;;;7.80;;
52708;SDS011;38606;52.986;6.980;2023-04-28T10:30:21;13.02;;;8.02;;
52708;SDS011;38606;52.986;6.980;2023-04-28T10:32:48;12.15;;;8.50;;
52708;SDS011;38606;52.986;6.980;2023-04-28T10:38:07;12.95;;;7.82;;
52708;SDS011;38606;52.986;6.980;2023-04-28T10:40:39;13.20;;;7.53;;
52708;SDS011;38606;52.986;6.980;2023-04-28T10:43:09;11.10;;;7.40;;
52708;SDS011;38606;52.986;6.980;2023-04-28T10:48:21;11.77;;;7.22;;
52708;SDS011;38606;52.986;6.980;2023-04-28T10:51:30;10.90;;;7.90;;
52708;SDS011;38606;52.986;6.980;2023-04-28T10:56:18;10.85;;;7.65;;
52708;SDS011;38606;52.986;6.980;2023-04-28T10:58:50;11.65;;;7.38;;
52708;SDS011;38606;52.986;6.980;2023-04-28T11:11:39;12.75;;;7.45;;
52708;SDS011;38606;52.986;6.980;2023-04-28T11:16:54;10.23;;;8.38;;
52708;SDS011;38606;52.986;6.980;2023-04-28T11:19:26;9.13;;;6.70;;
52708;SDS011;38606;52.986;6.980;2023-04-28T11:22:02;10.50;;;7.68;;
52708;SDS011;38606;52.986;6.980;2023-04-28T11:24:37;10.65;;;7.75;;
52708;SDS011;38606;52.986;6.980;2023-04-28T11:27:03;13.27;;;7.70;;
52708;SDS011;38606;52.986;6.980;2023-04-28T11:29:33;10.55;;;8.32;;
52708;SDS011;38606;52.986;6.980;2023-04-28T11:32:08;9.25;;;7.05;;
52708;SDS011;38606;52.986;6.980;2023-04-28T11:34:35;8.75;;;6.57;;
52708;SDS011;38606;52.986;6.980;2023-04-28T11:37:02;9.15;;;7.18;;
52708;SDS011;38606;52.986;6.980;2023-04-28T11:39:30;12.57;;;7.50;;
52708;SDS011;38606;52.986;6.980;2023-04-28T11:41:58;11.20;;;7.72;;
52708;SDS011;38606;52.986;6.980;2023-04-28T11:44:28;11.60;;;7.85;;
52708;SDS011;38606;52.986;6.980;2023-04-28T11:46:56;12.75;;;7.88;;
52708;SDS011;38606;52.986;6.980;2023-04-28T11:49:26;20.25;;;8.80;;
52708;SDS011;38606;52.986;6.980;2023-04-28T11:51:54;20.42;;;8.45;;
52708;SDS011;38606;52.986;6.980;2023-04-28T11:54:25;15.13;;;8.32;;
52708;SDS011;38606;52.986;6.980;2023-04-28T11:56:52;15.00;;;8.38;;
52708;SDS011;38606;52.986;6.980;2023-04-28T11:59:23;10.70;;;7.68;;
52708;SDS011;38606;52.986;6.980;2023-04-28T12:01:52;13.80;;;7.70;;
52708;SDS011;38606;52.986;6.980;2023-04-28T12:04:26;12.60;;;7.32;;
52708;SDS011;38606;52.986;6.980;2023-04-28T12:09:27;13.07;;;7.45;;
52708;SDS011;38606;52.986;6.980;2023-04-28T12:11:54;11.00;;;7.18;;
52708;SDS011;38606;52.986;6.980;2023-04-28T12:14:24;13.90;;;7.88;;
52708;SDS011;38606;52.986;6.980;2023-04-28T12:16:50;14.35;;;8.20;;
52708;SDS011;38606;52.986;6.980;2023-04-28T12:19:16;12.30;;;8.52;;
52708;SDS011;38606;52.986;6.980;2023-04-28T12:21:56;14.60;;;8.05;;
52708;SDS011;38606;52.986;6.980;2023-04-28T12:24:30;21.73;;;7.82;;
52708;SDS011;38606;52.986;6.980;2023-04-28T12:29:56;11.05;;;7.40;;
52708;SDS011;38606;52.986;6.980;2023-04-28T12:32:38;12.20;;;7.97;;
52708;SDS011;38606;52.986;6.980;2023-04-28T12:35:05;11.05;;;7.82;;
52708;SDS011;38606;52.986;6.980;2023-04-28T12:37:32;13.43;;;7.97;;
52708;SDS011;38606;52.986;6.980;2023-04-28T12:39:58;14.80;;;7.93;;
52708;SDS011;38606;52.986;6.980;2023-04-28T12:42:24;11.15;;;7.97;;
52708;SDS011;38606;52.986;6.980;2023-04-28T12:44:50;14.13;;;8.18;;
52708;SDS011;38606;52.986;6.980;2023-04-28T12:47:16;14.65;;;9.07;;
52708;SDS011;38606;52.986;6.980;2023-04-28T12:49:42;14.73;;;8.93;;
52708;SDS011;38606;52.986;6.980;2023-04-28T12:52:08;12.05;;;7.90;;
52708;SDS011;38606;52.986;6.980;2023-04-28T12:54:34;13.50;;;8.45;;
52708;SDS011;38606;52.986;6.980;2023-04-28T12:57:01;11.80;;;8.52;;
52708;SDS011;38606;52.986;6.980;2023-04-28T12:59:27;11.93;;;8.77;;
52708;SDS011;38606;52.986;6.980;2023-04-28T13:01:54;12.15;;;9.02;;
52708;SDS011;38606;52.986;6.980;2023-04-28T13:04:20;12.38;;;9.05;;
52708;SDS011;38606;52.986;6.980;2023-04-28T13:06:46;12.20;;;8.63;;
52708;SDS011;38606;52.986;6.980;2023-04-28T13:09:13;15.27;;;9.32;;
52708;SDS011;38606;52.986;6.980;2023-04-28T13:11:40;15.20;;;10.35;;
52708;SDS011;38606;52.986;6.980;2023-04-28T13:14:06;13.20;;;9.52;;
52708;SDS011;38606;52.986;6.980;2023-04-28T13:16:32;16.95;;;10.32;;
52708;SDS011;38606;52.986;6.980;2023-04-28T13:19:00;13.15;;;9.35;;
52708;SDS011;38606;52.986;6.980;2023-04-28T13:21:26;17.58;;;10.40;;
52708;SDS011;38606;52.986;6.980;2023-04-28T13:23:52;16.83;;;10.00;;
52708;SDS011;38606;52.986;6.980;2023-04-28T13:26:20;11.27;;;9.50;;
52708;SDS011;38606;52.986;6.980;2023-04-28T13:28:48;15.50;;;9.15;;
52708;SDS011;38606;52.986;6.980;2023-04-28T13:31:17;17.50;;;10.95;;
52708;SDS011;38606;52.986;6.980;2023-04-28T13:33:44;15.45;;;10.80;;
52708;SDS011;38606;52.986;6.980;2023-04-28T13:36:10;14.13;;;10.70;;
52708;SDS011;38606;52.986;6.980;2023-04-28T13:38:36;16.20;;;11.60;;
52708;SDS011;38606;52.986;6.980;2023-04-28T13:41:02;16.17;;;10.75;;
52708;SDS011;38606;52.986;6.980;2023-04-28T13:43:28;13.60;;;11.05;;
52708;SDS011;38606;52.986;6.980;2023-04-28T13:45:55;16.90;;;11.85;;
52708;SDS011;38606;52.986;6.980;2023-04-28T13:48:21;13.18;;;11.13;;
52708;SDS011;38606;52.986;6.980;2023-04-28T13:50:47;14.98;;;10.38;;
52708;SDS011;38606;52.986;6.980;2023-04-28T13:53:13;16.58;;;12.13;;
52708;SDS011;38606;52.986;6.980;2023-04-28T13:55:39;14.95;;;11.95;;
52708;SDS011;38606;52.986;6.980;2023-04-28T13:58:05;15.57;;;12.18;;
52708;SDS011;38606;52.986;6.980;2023-04-28T14:00:31;21.17;;;12.27;;
52708;SDS011;38606;52.986;6.980;2023-04-28T14:02:59;17.33;;;12.73;;
52708;SDS011;38606;52.986;6.980;2023-04-28T14:05:25;20.27;;;13.43;;
52708;SDS011;38606;52.986;6.980;2023-04-28T14:07:54;16.67;;;13.95;;
52708;SDS011;38606;52.986;6.980;2023-04-28T14:10:20;18.63;;;14.07;;
52708;SDS011;38606;52.986;6.980;2023-04-28T14:12:47;21.13;;;14.77;;
52708;SDS011;38606;52.986;6.980;2023-04-28T14:15:13;18.90;;;14.95;;
52708;SDS011;38606;52.986;6.980;2023-04-28T14:17:40;21.05;;;16.40;;
52708;SDS011;38606;52.986;6.980;2023-04-28T14:20:06;18.67;;;15.98;;
52708;SDS011;38606;52.986;6.980;2023-04-28T14:22:36;18.13;;;15.05;;
52708;SDS011;38606;52.986;6.980;2023-04-28T14:25:05;18.95;;;16.55;;
52708;SDS011;38606;52.986;6.980;2023-04-28T14:27:32;19.30;;;16.15;;
52708;SDS011;38606;52.986;6.980;2023-04-28T14:29:58;21.98;;;17.08;;
52708;SDS011;38606;52.986;6.980;2023-04-28T14:32:24;20.00;;;16.27;;
52708;SDS011;38606;52.986;6.980;2023-04-28T14:34:50;21.20;;;18.05;;
52708;SDS011;38606;52.986;6.980;2023-04-28T14:37:16;22.33;;;17.77;;
52708;SDS011;38606;52.986;6.980;2023-04-28T14:39:42;21.75;;;18.25;;
52708;SDS011;38606;52.986;6.980;2023-04-28T14:42:08;20.25;;;17.55;;
52708;SDS011;38606;52.986;6.980;2023-04-28T14:44:34;22.85;;;17.63;;
52708;SDS011;38606;52.986;6.980;2023-04-28T14:47:01;21.30;;;19.00;;
52708;SDS011;38606;52.986;6.980;2023-04-28T14:49:27;21.88;;;17.42;;
52708;SDS011;38606;52.986;6.980;2023-04-28T14:51:53;23.75;;;20.15;;
52708;SDS011;38606;52.986;6.980;2023-04-28T14:54:19;27.15;;;20.25;;
52708;SDS011;38606;52.986;6.980;2023-04-28T14:56:48;26.08;;;19.27;;
52708;SDS011;38606;52.986;6.980;2023-04-28T14:59:14;25.65;;;20.48;;
52708;SDS011;38606;52.986;6.980;2023-04-28T15:01:40;23.05;;;19.88;;